sensor_id;sensor_type;location;lat;lon;timestamp;P1;durP1;ratioP1;P2;durP2;ratioP2
54705;SDS011;40603;48.774;8.916;2023-12-20T00:02:04;1.88;;;1.27;;
54705;SDS011;40603;48.774;8.916;2023-12-20T00:04:30;1.73;;;1.38;;
54705;SDS011;40603;48.774;8.916;2023-12-20T00:06:55;1.52;;;1.15;;
54705;SDS011;40603;48.774;8.916;2023-12-20T00:09:20;1.52;;;1.20;;
54705;SDS011;40603;48.774;8.916;2023-12-20T00:11:46;2.05;;;1.38;;
54705;SDS011;40603;48.774;8.916;2023-12-20T00:14:11;1.83;;;1.50;;
54705;SDS011;40603;48.774;8.916;2023-12-20T00:16:36;1.45;;;1.10;;
54705;SDS011;40603;48.774;8.916;2023-12-20T00:19:02;1.70;;;1.10;;
54705;SDS011;40603;48.774;8.916;2023-12-20T00:21:27;1.60;;;1.08;;
54705;SDS011;40603;48.774;8.916;2023-12-20T00:23:52;1.58;;;1.30;;
54705;SDS011;40603;48.774;8.916;2023-12-20T00:26:18;2.15;;;1.38;;
54705;SDS011;40603;48.774;8.916;2023-12-20T00:28:43;1.30;;;1.20;;
54705;SDS011;40603;48.774;8.916;2023-12-20T00:31:08;2.25;;;1.23;;
54705;SDS011;40603;48.774;8.916;2023-12-20T00:33:34;1.40;;;1.10;;
54705;SDS011;40603;48.774;8.916;2023-12-20T00:35:59;1.30;;;1.02;;
54705;SDS011;40603;48.774;8.916;2023-12-20T00:38:24;2.13;;;1.10;;
54705;SDS011;40603;48.774;8.916;2023-12-20T00:40:49;1.33;;;1.10;;
54705;SDS011;40603;48.774;8.916;2023-12-20T00:43:15;1.40;;;1.05;;
54705;SDS011;40603;48.774;8.916;2023-12-20T00:45:40;1.38;;;1.17;;
54705;SDS011;40603;48.774;8.916;2023-12-20T00:48:06;1.95;;;1.08;;
54705;SDS011;40603;48.774;8.916;2023-12-20T00:50:31;2.25;;;1.20;;
54705;SDS011;40603;48.774;8.916;2023-12-20T00:52:56;1.70;;;1.30;;
54705;SDS011;40603;48.774;8.916;2023-12-20T00:55:22;1.95;;;1.17;;
54705;SDS011;40603;48.774;8.916;2023-12-20T00:57:47;2.75;;;1.33;;
54705;SDS011;40603;48.774;8.916;2023-12-20T01:00:13;2.30;;;1.27;;
54705;SDS011;40603;48.774;8.916;2023-12-20T01:02:38;2.58;;;1.40;;
54705;SDS011;40603;48.774;8.916;2023-12-20T01:05:04;1.45;;;1.00;;
54705;SDS011;40603;48.774;8.916;2023-12-20T01:07:29;1.38;;;1.17;;
54705;SDS011;40603;48.774;8.916;2023-12-20T01:09:55;2.33;;;1.25;;
54705;SDS011;40603;48.774;8.916;2023-12-20T01:12:20;1.48;;;1.10;;
54705;SDS011;40603;48.774;8.916;2023-12-20T01:14:45;1.30;;;1.08;;
54705;SDS011;40603;48.774;8.916;2023-12-20T01:17:11;3.00;;;1.25;;
54705;SDS011;40603;48.774;8.916;2023-12-20T01:19:36;2.05;;;1.17;;
54705;SDS011;40603;48.774;8.916;2023-12-20T01:22:01;3.05;;;1.38;;
54705;SDS011;40603;48.774;8.916;2023-12-20T01:24:27;2.03;;;1.13;;
54705;SDS011;40603;48.774;8.916;2023-12-20T01:26:52;1.48;;;1.38;;
54705;SDS011;40603;48.774;8.916;2023-12-20T01:29:17;1.90;;;1.17;;
54705;SDS011;40603;48.774;8.916;2023-12-20T01:31:43;2.83;;;1.35;;
54705;SDS011;40603;48.774;8.916;2023-12-20T01:34:08;1.58;;;1.30;;
54705;SDS011;40603;48.774;8.916;2023-12-20T01:36:33;4.00;;;1.60;;
54705;SDS011;40603;48.774;8.916;2023-12-20T01:38:59;2.72;;;1.40;;
54705;SDS011;40603;48.774;8.916;2023-12-20T01:41:24;2.38;;;1.40;;
54705;SDS011;40603;48.774;8.916;2023-12-20T01:43:49;2.97;;;1.33;;
54705;SDS011;40603;48.774;8.916;2023-12-20T01:46:15;2.03;;;1.65;;
54705;SDS011;40603;48.774;8.916;2023-12-20T01:48:40;1.63;;;1.20;;
54705;SDS011;40603;48.774;8.916;2023-12-20T01:51:06;2.38;;;1.50;;
54705;SDS011;40603;48.774;8.916;2023-12-20T01:53:31;1.38;;;1.27;;
54705;SDS011;40603;48.774;8.916;2023-12-20T01:55:57;1.27;;;1.10;;
54705;SDS011;40603;48.774;8.916;2023-12-20T01:58:23;1.05;;;0.98;;
54705;SDS011;40603;48.774;8.916;2023-12-20T02:00:49;1.50;;;1.15;;
54705;SDS011;40603;48.774;8.916;2023-12-20T02:03:15;1.30;;;0.88;;
54705;SDS011;40603;48.774;8.916;2023-12-20T02:05:41;1.02;;;0.95;;
54705;SDS011;40603;48.774;8.916;2023-12-20T02:08:06;0.88;;;0.80;;
54705;SDS011;40603;48.774;8.916;2023-12-20T02:10:32;1.38;;;0.57;;
54705;SDS011;40603;48.774;8.916;2023-12-20T02:12:57;0.70;;;0.50;;
54705;SDS011;40603;48.774;8.916;2023-12-20T02:15:22;0.20;;;0.20;;
54705;SDS011;40603;48.774;8.916;2023-12-20T02:17:48;0.40;;;0.40;;
54705;SDS011;40603;48.774;8.916;2023-12-20T02:20:14;0.25;;;0.20;;
54705;SDS011;40603;48.774;8.916;2023-12-20T02:22:39;0.13;;;0.10;;
54705;SDS011;40603;48.774;8.916;2023-12-20T02:25:04;0.20;;;0.20;;
54705;SDS011;40603;48.774;8.916;2023-12-20T02:27:30;0.10;;;0.10;;
54705;SDS011;40603;48.774;8.916;2023-12-20T02:29:55;0.10;;;0.10;;
54705;SDS011;40603;48.774;8.916;2023-12-20T02:32:21;0.20;;;0.20;;
54705;SDS011;40603;48.774;8.916;2023-12-20T02:34:48;0.35;;;0.25;;
54705;SDS011;40603;48.774;8.916;2023-12-20T02:37:13;0.43;;;0.30;;
54705;SDS011;40603;48.774;8.916;2023-12-20T02:39:39;0.10;;;0.10;;
54705;SDS011;40603;48.774;8.916;2023-12-20T02:42:04;0.28;;;0.10;;
54705;SDS011;40603;48.774;8.916;2023-12-20T02:44:29;0.10;;;0.10;;
54705;SDS011;40603;48.774;8.916;2023-12-20T02:46:55;0.20;;;0.20;;
54705;SDS011;40603;48.774;8.916;2023-12-20T02:49:20;0.10;;;0.10;;
54705;SDS011;40603;48.774;8.916;2023-12-20T02:51:45;0.55;;;0.20;;
54705;SDS011;40603;48.774;8.916;2023-12-20T02:54:11;0.20;;;0.20;;
54705;SDS011;40603;48.774;8.916;2023-12-20T02:56:36;0.10;;;0.10;;
54705;SDS011;40603;48.774;8.916;2023-12-20T02:59:02;0.30;;;0.30;;
54705;SDS011;40603;48.774;8.916;2023-12-20T03:01:30;0.20;;;0.20;;
54705;SDS011;40603;48.774;8.916;2023-12-20T03:03:55;0.10;;;0.10;;
54705;SDS011;40603;48.774;8.916;2023-12-20T03:06:21;0.20;;;0.20;;
54705;SDS011;40603;48.774;8.916;2023-12-20T03:08:46;0.10;;;0.10;;
54705;SDS011;40603;48.774;8.916;2023-12-20T03:11:11;0.57;;;0.30;;
54705;SDS011;40603;48.774;8.916;2023-12-20T03:13:36;0.20;;;0.20;;
54705;SDS011;40603;48.774;8.916;2023-12-20T03:16:07;0.43;;;0.20;;
54705;SDS011;40603;48.774;8.916;2023-12-20T03:18:36;1.45;;;0.10;;
54705;SDS011;40603;48.774;8.916;2023-12-20T03:21:01;0.10;;;0.10;;
54705;SDS011;40603;48.774;8.916;2023-12-20T03:23:27;0.10;;;0.10;;
54705;SDS011;40603;48.774;8.916;2023-12-20T03:25:53;0.10;;;0.10;;
54705;SDS011;40603;48.774;8.916;2023-12-20T03:28:18;0.22;;;0.17;;
54705;SDS011;40603;48.774;8.916;2023-12-20T03:30:44;0.15;;;0.10;;
54705;SDS011;40603;48.774;8.916;2023-12-20T03:33:09;1.55;;;0.20;;
54705;SDS011;40603;48.774;8.916;2023-12-20T03:35:35;0.20;;;0.20;;
54705;SDS011;40603;48.774;8.916;2023-12-20T03:38:00;0.20;;;0.20;;
54705;SDS011;40603;48.774;8.916;2023-12-20T03:40:25;1.65;;;0.35;;
54705;SDS011;40603;48.774;8.916;2023-12-20T03:42:51;0.30;;;0.20;;
54705;SDS011;40603;48.774;8.916;2023-12-20T03:45:16;0.13;;;0.13;;
54705;SDS011;40603;48.774;8.916;2023-12-20T03:47:41;0.15;;;0.15;;
54705;SDS011;40603;48.774;8.916;2023-12-20T03:50:07;0.20;;;0.20;;
54705;SDS011;40603;48.774;8.916;2023-12-20T03:52:32;0.38;;;0.32;;
54705;SDS011;40603;48.774;8.916;2023-12-20T03:54:57;0.68;;;0.30;;
54705;SDS011;40603;48.774;8.916;2023-12-20T03:57:23;0.25;;;0.25;;
54705;SDS011;40603;48.774;8.916;2023-12-20T03:59:48;0.30;;;0.20;;
54705;SDS011;40603;48.774;8.916;2023-12-20T04:02:13;0.85;;;0.10;;
54705;SDS011;40603;48.774;8.916;2023-12-20T04:04:39;0.32;;;0.20;;
54705;SDS011;40603;48.774;8.916;2023-12-20T04:07:04;0.40;;;0.22;;
54705;SDS011;40603;48.774;8.916;2023-12-20T04:09:29;0.20;;;0.20;;
54705;SDS011;40603;48.774;8.916;2023-12-20T04:11:54;0.45;;;0.10;;
54705;SDS011;40603;48.774;8.916;2023-12-20T04:14:20;0.60;;;0.20;;
54705;SDS011;40603;48.774;8.916;2023-12-20T04:16:45;0.10;;;0.10;;
54705;SDS011;40603;48.774;8.916;2023-12-20T04:19:10;0.70;;;0.30;;
54705;SDS011;40603;48.774;8.916;2023-12-20T04:21:36;0.17;;;0.17;;
54705;SDS011;40603;48.774;8.916;2023-12-20T04:24:01;0.20;;;0.20;;
54705;SDS011;40603;48.774;8.916;2023-12-20T04:26:26;0.38;;;0.30;;
54705;SDS011;40603;48.774;8.916;2023-12-20T04:28:51;0.15;;;0.15;;
54705;SDS011;40603;48.774;8.916;2023-12-20T04:31:17;0.32;;;0.20;;
54705;SDS011;40603;48.774;8.916;2023-12-20T04:33:42;0.15;;;0.15;;
54705;SDS011;40603;48.774;8.916;2023-12-20T04:36:08;0.20;;;0.20;;
54705;SDS011;40603;48.774;8.916;2023-12-20T04:38:34;0.10;;;0.10;;
54705;SDS011;40603;48.774;8.916;2023-12-20T04:40:59;0.52;;;0.20;;
54705;SDS011;40603;48.774;8.916;2023-12-20T04:43:25;0.30;;;0.30;;
54705;SDS011;40603;48.774;8.916;2023-12-20T04:45:50;0.20;;;0.20;;
54705;SDS011;40603;48.774;8.916;2023-12-20T04:48:15;0.20;;;0.20;;
54705;SDS011;40603;48.774;8.916;2023-12-20T04:50:40;0.30;;;0.30;;
54705;SDS011;40603;48.774;8.916;2023-12-20T04:53:06;0.10;;;0.10;;
54705;SDS011;40603;48.774;8.916;2023-12-20T04:55:31;0.20;;;0.20;;
54705;SDS011;40603;48.774;8.916;2023-12-20T04:57:56;0.20;;;0.20;;
54705;SDS011;40603;48.774;8.916;2023-12-20T05:00:22;1.20;;;0.25;;
54705;SDS011;40603;48.774;8.916;2023-12-20T05:02:47;0.10;;;0.10;;
54705;SDS011;40603;48.774;8.916;2023-12-20T05:05:13;2.08;;;0.20;;
54705;SDS011;40603;48.774;8.916;2023-12-20T05:07:40;0.10;;;0.10;;
54705;SDS011;40603;48.774;8.916;2023-12-20T05:10:05;0.90;;;0.20;;
54705;SDS011;40603;48.774;8.916;2023-12-20T05:12:32;1.55;;;0.10;;
54705;SDS011;40603;48.774;8.916;2023-12-20T05:14:58;0.38;;;0.30;;
54705;SDS011;40603;48.774;8.916;2023-12-20T05:17:23;0.68;;;0.28;;
54705;SDS011;40603;48.774;8.916;2023-12-20T05:19:49;1.10;;;0.50;;
54705;SDS011;40603;48.774;8.916;2023-12-20T05:22:14;2.63;;;1.45;;
54705;SDS011;40603;48.774;8.916;2023-12-20T05:24:39;3.80;;;0.73;;
54705;SDS011;40603;48.774;8.916;2023-12-20T05:27:05;0.65;;;0.40;;
54705;SDS011;40603;48.774;8.916;2023-12-20T05:29:30;2.35;;;0.70;;
54705;SDS011;40603;48.774;8.916;2023-12-20T05:31:58;0.47;;;0.40;;
54705;SDS011;40603;48.774;8.916;2023-12-20T05:34:23;0.40;;;0.40;;
54705;SDS011;40603;48.774;8.916;2023-12-20T05:36:49;0.80;;;0.80;;
54705;SDS011;40603;48.774;8.916;2023-12-20T05:39:14;0.85;;;0.65;;
54705;SDS011;40603;48.774;8.916;2023-12-20T05:41:39;2.20;;;1.40;;
54705;SDS011;40603;48.774;8.916;2023-12-20T05:44:05;1.95;;;1.00;;
54705;SDS011;40603;48.774;8.916;2023-12-20T05:46:30;1.35;;;0.82;;
54705;SDS011;40603;48.774;8.916;2023-12-20T05:48:55;0.55;;;0.55;;
54705;SDS011;40603;48.774;8.916;2023-12-20T05:51:20;0.85;;;0.68;;
54705;SDS011;40603;48.774;8.916;2023-12-20T05:53:46;0.98;;;0.60;;
54705;SDS011;40603;48.774;8.916;2023-12-20T05:56:11;0.77;;;0.65;;
54705;SDS011;40603;48.774;8.916;2023-12-20T05:58:38;0.70;;;0.60;;
54705;SDS011;40603;48.774;8.916;2023-12-20T06:01:04;1.33;;;0.70;;
54705;SDS011;40603;48.774;8.916;2023-12-20T06:03:30;1.02;;;0.75;;
54705;SDS011;40603;48.774;8.916;2023-12-20T06:05:55;0.93;;;0.60;;
54705;SDS011;40603;48.774;8.916;2023-12-20T06:08:21;0.70;;;0.63;;
54705;SDS011;40603;48.774;8.916;2023-12-20T06:10:46;0.70;;;0.60;;
54705;SDS011;40603;48.774;8.916;2023-12-20T06:13:11;2.40;;;0.50;;
54705;SDS011;40603;48.774;8.916;2023-12-20T06:15:38;0.70;;;0.40;;
54705;SDS011;40603;48.774;8.916;2023-12-20T06:18:03;1.95;;;0.80;;
54705;SDS011;40603;48.774;8.916;2023-12-20T06:20:29;0.90;;;0.70;;
54705;SDS011;40603;48.774;8.916;2023-12-20T06:22:54;0.70;;;0.70;;
54705;SDS011;40603;48.774;8.916;2023-12-20T06:25:19;1.15;;;0.80;;
54705;SDS011;40603;48.774;8.916;2023-12-20T06:27:44;1.33;;;0.60;;
54705;SDS011;40603;48.774;8.916;2023-12-20T06:30:10;0.98;;;0.50;;
54705;SDS011;40603;48.774;8.916;2023-12-20T06:32:35;0.90;;;0.70;;
54705;SDS011;40603;48.774;8.916;2023-12-20T06:35:01;0.40;;;0.40;;
54705;SDS011;40603;48.774;8.916;2023-12-20T06:37:26;0.30;;;0.30;;
54705;SDS011;40603;48.774;8.916;2023-12-20T06:39:51;0.65;;;0.50;;
54705;SDS011;40603;48.774;8.916;2023-12-20T06:42:16;0.40;;;0.40;;
54705;SDS011;40603;48.774;8.916;2023-12-20T06:44:42;1.02;;;0.43;;
54705;SDS011;40603;48.774;8.916;2023-12-20T06:47:07;1.13;;;0.70;;
54705;SDS011;40603;48.774;8.916;2023-12-20T06:49:32;3.00;;;0.50;;
54705;SDS011;40603;48.774;8.916;2023-12-20T06:51:58;2.45;;;0.60;;
54705;SDS011;40603;48.774;8.916;2023-12-20T06:54:23;1.38;;;0.57;;
54705;SDS011;40603;48.774;8.916;2023-12-20T06:56:48;1.08;;;0.98;;
54705;SDS011;40603;48.774;8.916;2023-12-20T06:59:14;0.95;;;0.93;;
54705;SDS011;40603;48.774;8.916;2023-12-20T07:01:39;0.80;;;0.80;;
54705;SDS011;40603;48.774;8.916;2023-12-20T07:04:04;0.85;;;0.70;;
54705;SDS011;40603;48.774;8.916;2023-12-20T07:06:30;1.08;;;0.70;;
54705;SDS011;40603;48.774;8.916;2023-12-20T07:08:55;0.77;;;0.77;;
54705;SDS011;40603;48.774;8.916;2023-12-20T07:11:20;1.33;;;1.13;;
54705;SDS011;40603;48.774;8.916;2023-12-20T07:13:46;2.05;;;1.20;;
54705;SDS011;40603;48.774;8.916;2023-12-20T07:16:11;3.97;;;1.73;;
54705;SDS011;40603;48.774;8.916;2023-12-20T07:18:36;1.58;;;1.33;;
54705;SDS011;40603;48.774;8.916;2023-12-20T07:21:02;2.33;;;1.80;;
54705;SDS011;40603;48.774;8.916;2023-12-20T07:23:28;3.28;;;2.13;;
54705;SDS011;40603;48.774;8.916;2023-12-20T07:25:53;3.95;;;1.80;;
54705;SDS011;40603;48.774;8.916;2023-12-20T07:28:18;2.45;;;2.13;;
54705;SDS011;40603;48.774;8.916;2023-12-20T07:30:44;3.03;;;2.20;;
54705;SDS011;40603;48.774;8.916;2023-12-20T07:33:09;2.65;;;2.20;;
54705;SDS011;40603;48.774;8.916;2023-12-20T07:35:35;3.75;;;2.35;;
54705;SDS011;40603;48.774;8.916;2023-12-20T07:38:00;6.07;;;2.10;;
54705;SDS011;40603;48.774;8.916;2023-12-20T07:40:26;3.30;;;2.33;;
54705;SDS011;40603;48.774;8.916;2023-12-20T07:42:51;3.20;;;2.35;;
54705;SDS011;40603;48.774;8.916;2023-12-20T07:45:16;3.97;;;2.60;;
54705;SDS011;40603;48.774;8.916;2023-12-20T07:47:41;4.15;;;2.83;;
54705;SDS011;40603;48.774;8.916;2023-12-20T07:50:07;6.30;;;2.88;;
54705;SDS011;40603;48.774;8.916;2023-12-20T07:52:32;4.07;;;2.97;;
54705;SDS011;40603;48.774;8.916;2023-12-20T07:54:57;5.03;;;3.38;;
54705;SDS011;40603;48.774;8.916;2023-12-20T07:57:23;3.83;;;2.63;;
54705;SDS011;40603;48.774;8.916;2023-12-20T07:59:48;4.72;;;2.95;;
54705;SDS011;40603;48.774;8.916;2023-12-20T08:02:14;5.55;;;3.05;;
54705;SDS011;40603;48.774;8.916;2023-12-20T08:04:39;4.22;;;2.95;;
54705;SDS011;40603;48.774;8.916;2023-12-20T08:07:05;5.25;;;3.20;;
54705;SDS011;40603;48.774;8.916;2023-12-20T08:09:31;8.85;;;3.47;;
54705;SDS011;40603;48.774;8.916;2023-12-20T08:11:57;5.93;;;3.25;;
54705;SDS011;40603;48.774;8.916;2023-12-20T08:14:24;4.13;;;3.05;;
54705;SDS011;40603;48.774;8.916;2023-12-20T08:16:49;4.68;;;3.20;;
54705;SDS011;40603;48.774;8.916;2023-12-20T08:19:15;4.75;;;3.13;;
54705;SDS011;40603;48.774;8.916;2023-12-20T08:21:40;7.75;;;3.65;;
54705;SDS011;40603;48.774;8.916;2023-12-20T08:24:05;5.10;;;3.33;;
54705;SDS011;40603;48.774;8.916;2023-12-20T08:26:32;10.65;;;2.45;;
54705;SDS011;40603;48.774;8.916;2023-12-20T08:28:57;3.95;;;2.60;;
54705;SDS011;40603;48.774;8.916;2023-12-20T08:31:23;3.47;;;2.30;;
54705;SDS011;40603;48.774;8.916;2023-12-20T08:33:48;4.30;;;2.38;;
54705;SDS011;40603;48.774;8.916;2023-12-20T08:36:14;4.47;;;2.38;;
54705;SDS011;40603;48.774;8.916;2023-12-20T08:38:40;4.07;;;2.40;;
54705;SDS011;40603;48.774;8.916;2023-12-20T08:41:06;5.13;;;2.10;;
54705;SDS011;40603;48.774;8.916;2023-12-20T08:43:31;2.28;;;1.50;;
54705;SDS011;40603;48.774;8.916;2023-12-20T08:45:57;5.97;;;1.75;;
54705;SDS011;40603;48.774;8.916;2023-12-20T08:48:22;6.07;;;1.42;;
54705;SDS011;40603;48.774;8.916;2023-12-20T08:50:48;1.98;;;1.40;;
54705;SDS011;40603;48.774;8.916;2023-12-20T08:53:15;3.15;;;1.70;;
54705;SDS011;40603;48.774;8.916;2023-12-20T08:55:41;2.55;;;1.50;;
54705;SDS011;40603;48.774;8.916;2023-12-20T08:58:06;1.88;;;1.30;;
54705;SDS011;40603;48.774;8.916;2023-12-20T09:00:33;4.72;;;1.45;;
54705;SDS011;40603;48.774;8.916;2023-12-20T09:02:58;2.53;;;1.38;;
54705;SDS011;40603;48.774;8.916;2023-12-20T09:05:24;4.28;;;1.50;;
54705;SDS011;40603;48.774;8.916;2023-12-20T09:07:49;4.75;;;1.60;;
54705;SDS011;40603;48.774;8.916;2023-12-20T09:10:15;5.28;;;1.75;;
54705;SDS011;40603;48.774;8.916;2023-12-20T09:12:40;4.20;;;1.55;;
54705;SDS011;40603;48.774;8.916;2023-12-20T09:15:07;4.22;;;1.30;;
54705;SDS011;40603;48.774;8.916;2023-12-20T09:17:33;5.00;;;1.27;;
54705;SDS011;40603;48.774;8.916;2023-12-20T09:19:58;7.97;;;1.50;;
54705;SDS011;40603;48.774;8.916;2023-12-20T09:22:24;7.43;;;1.13;;
54705;SDS011;40603;48.774;8.916;2023-12-20T09:24:50;3.28;;;1.65;;
54705;SDS011;40603;48.774;8.916;2023-12-20T09:27:15;9.95;;;1.30;;
54705;SDS011;40603;48.774;8.916;2023-12-20T09:29:40;5.35;;;1.25;;
54705;SDS011;40603;48.774;8.916;2023-12-20T09:32:06;5.68;;;1.40;;
54705;SDS011;40603;48.774;8.916;2023-12-20T09:34:31;4.38;;;1.67;;
54705;SDS011;40603;48.774;8.916;2023-12-20T09:36:56;4.35;;;1.13;;
54705;SDS011;40603;48.774;8.916;2023-12-20T09:39:22;6.25;;;1.50;;
54705;SDS011;40603;48.774;8.916;2023-12-20T09:41:50;3.97;;;1.23;;
54705;SDS011;40603;48.774;8.916;2023-12-20T09:44:22;2.55;;;0.98;;
54705;SDS011;40603;48.774;8.916;2023-12-20T09:46:49;2.30;;;1.02;;
54705;SDS011;40603;48.774;8.916;2023-12-20T09:49:15;3.42;;;1.10;;
54705;SDS011;40603;48.774;8.916;2023-12-20T09:51:42;5.00;;;1.13;;
54705;SDS011;40603;48.774;8.916;2023-12-20T09:54:07;6.40;;;1.25;;
54705;SDS011;40603;48.774;8.916;2023-12-20T09:56:33;2.15;;;1.13;;
54705;SDS011;40603;48.774;8.916;2023-12-20T09:58:59;2.30;;;1.10;;
54705;SDS011;40603;48.774;8.916;2023-12-20T10:01:24;4.28;;;1.40;;
54705;SDS011;40603;48.774;8.916;2023-12-20T10:03:50;5.43;;;1.05;;
54705;SDS011;40603;48.774;8.916;2023-12-20T10:06:16;9.80;;;1.63;;
54705;SDS011;40603;48.774;8.916;2023-12-20T10:08:41;5.20;;;1.23;;
54705;SDS011;40603;48.774;8.916;2023-12-20T10:11:07;4.07;;;1.23;;
54705;SDS011;40603;48.774;8.916;2023-12-20T10:13:32;4.60;;;1.00;;
54705;SDS011;40603;48.774;8.916;2023-12-20T10:15:57;3.70;;;1.30;;
54705;SDS011;40603;48.774;8.916;2023-12-20T10:18:24;5.00;;;1.20;;
54705;SDS011;40603;48.774;8.916;2023-12-20T10:20:49;4.43;;;1.83;;
54705;SDS011;40603;48.774;8.916;2023-12-20T10:23:15;3.10;;;1.23;;
54705;SDS011;40603;48.774;8.916;2023-12-20T10:25:40;5.00;;;1.52;;
54705;SDS011;40603;48.774;8.916;2023-12-20T10:30:36;5.63;;;1.60;;
54705;SDS011;40603;48.774;8.916;2023-12-20T10:33:02;7.63;;;1.50;;
54705;SDS011;40603;48.774;8.916;2023-12-20T10:35:27;7.57;;;1.42;;
54705;SDS011;40603;48.774;8.916;2023-12-20T10:37:55;8.05;;;1.58;;
54705;SDS011;40603;48.774;8.916;2023-12-20T10:40:21;8.20;;;1.25;;
54705;SDS011;40603;48.774;8.916;2023-12-20T10:42:47;5.07;;;1.35;;
54705;SDS011;40603;48.774;8.916;2023-12-20T10:45:13;4.18;;;1.27;;
54705;SDS011;40603;48.774;8.916;2023-12-20T10:47:38;6.25;;;1.48;;
54705;SDS011;40603;48.774;8.916;2023-12-20T10:50:05;6.90;;;1.30;;
54705;SDS011;40603;48.774;8.916;2023-12-20T10:52:31;2.42;;;1.30;;
54705;SDS011;40603;48.774;8.916;2023-12-20T10:54:57;4.35;;;1.27;;
54705;SDS011;40603;48.774;8.916;2023-12-20T10:57:22;5.30;;;1.50;;
54705;SDS011;40603;48.774;8.916;2023-12-20T10:59:48;15.45;;;1.48;;
54705;SDS011;40603;48.774;8.916;2023-12-20T11:02:14;4.35;;;1.15;;
54705;SDS011;40603;48.774;8.916;2023-12-20T11:04:44;3.72;;;1.20;;
54705;SDS011;40603;48.774;8.916;2023-12-20T11:07:23;5.10;;;1.23;;
54705;SDS011;40603;48.774;8.916;2023-12-20T11:10:03;4.80;;;1.58;;
54705;SDS011;40603;48.774;8.916;2023-12-20T11:12:46;6.20;;;1.33;;
54705;SDS011;40603;48.774;8.916;2023-12-20T11:15:14;5.43;;;1.35;;
54705;SDS011;40603;48.774;8.916;2023-12-20T11:17:40;5.40;;;1.10;;
54705;SDS011;40603;48.774;8.916;2023-12-20T11:20:06;3.05;;;1.42;;
54705;SDS011;40603;48.774;8.916;2023-12-20T11:22:33;3.90;;;1.25;;
54705;SDS011;40603;48.774;8.916;2023-12-20T11:25:03;3.67;;;1.13;;
54705;SDS011;40603;48.774;8.916;2023-12-20T11:27:28;3.40;;;1.10;;
54705;SDS011;40603;48.774;8.916;2023-12-20T11:29:56;2.47;;;1.08;;
54705;SDS011;40603;48.774;8.916;2023-12-20T11:34:57;4.93;;;1.35;;
54705;SDS011;40603;48.774;8.916;2023-12-20T11:37:31;3.88;;;1.20;;
54705;SDS011;40603;48.774;8.916;2023-12-20T11:40:00;2.40;;;1.10;;
54705;SDS011;40603;48.774;8.916;2023-12-20T11:42:27;4.40;;;1.30;;
54705;SDS011;40603;48.774;8.916;2023-12-20T11:44:53;5.88;;;1.33;;
54705;SDS011;40603;48.774;8.916;2023-12-20T11:47:18;5.25;;;1.77;;
54705;SDS011;40603;48.774;8.916;2023-12-20T11:49:46;6.28;;;1.75;;
54705;SDS011;40603;48.774;8.916;2023-12-20T11:52:13;9.85;;;1.60;;
54705;SDS011;40603;48.774;8.916;2023-12-20T11:54:38;4.95;;;1.35;;
54705;SDS011;40603;48.774;8.916;2023-12-20T11:57:04;8.73;;;1.60;;
54705;SDS011;40603;48.774;8.916;2023-12-20T11:59:30;7.13;;;1.73;;
54705;SDS011;40603;48.774;8.916;2023-12-20T12:01:56;5.40;;;1.50;;
54705;SDS011;40603;48.774;8.916;2023-12-20T12:04:25;3.80;;;1.08;;
54705;SDS011;40603;48.774;8.916;2023-12-20T12:06:51;3.55;;;1.10;;
54705;SDS011;40603;48.774;8.916;2023-12-20T12:09:16;4.70;;;1.40;;
54705;SDS011;40603;48.774;8.916;2023-12-20T12:11:42;4.47;;;1.02;;
54705;SDS011;40603;48.774;8.916;2023-12-20T12:14:08;8.35;;;1.40;;
54705;SDS011;40603;48.774;8.916;2023-12-20T12:16:33;6.35;;;1.45;;
54705;SDS011;40603;48.774;8.916;2023-12-20T12:18:58;11.45;;;1.90;;
54705;SDS011;40603;48.774;8.916;2023-12-20T12:21:24;8.70;;;1.38;;
54705;SDS011;40603;48.774;8.916;2023-12-20T12:23:50;8.27;;;1.30;;
54705;SDS011;40603;48.774;8.916;2023-12-20T12:26:15;6.15;;;1.55;;
54705;SDS011;40603;48.774;8.916;2023-12-20T12:28:40;3.65;;;1.08;;
54705;SDS011;40603;48.774;8.916;2023-12-20T12:31:07;9.43;;;1.27;;
54705;SDS011;40603;48.774;8.916;2023-12-20T12:33:33;5.63;;;1.35;;
54705;SDS011;40603;48.774;8.916;2023-12-20T12:35:58;4.30;;;1.05;;
54705;SDS011;40603;48.774;8.916;2023-12-20T12:38:24;2.67;;;1.23;;
54705;SDS011;40603;48.774;8.916;2023-12-20T12:40:50;5.18;;;1.13;;
54705;SDS011;40603;48.774;8.916;2023-12-20T12:43:15;7.32;;;1.77;;
54705;SDS011;40603;48.774;8.916;2023-12-20T12:45:41;4.60;;;1.17;;
54705;SDS011;40603;48.774;8.916;2023-12-20T12:48:06;4.53;;;1.48;;
54705;SDS011;40603;48.774;8.916;2023-12-20T12:50:32;4.75;;;1.40;;
54705;SDS011;40603;48.774;8.916;2023-12-20T12:52:57;4.82;;;1.17;;
54705;SDS011;40603;48.774;8.916;2023-12-20T12:55:22;2.80;;;0.95;;
54705;SDS011;40603;48.774;8.916;2023-12-20T12:57:49;4.18;;;0.95;;
54705;SDS011;40603;48.774;8.916;2023-12-20T13:00:14;2.95;;;1.10;;
54705;SDS011;40603;48.774;8.916;2023-12-20T13:02:40;5.75;;;1.45;;
54705;SDS011;40603;48.774;8.916;2023-12-20T13:05:08;6.68;;;1.00;;
54705;SDS011;40603;48.774;8.916;2023-12-20T13:07:33;6.88;;;1.10;;
54705;SDS011;40603;48.774;8.916;2023-12-20T13:09:59;6.40;;;1.40;;
54705;SDS011;40603;48.774;8.916;2023-12-20T13:12:25;7.00;;;1.10;;
54705;SDS011;40603;48.774;8.916;2023-12-20T13:14:50;4.57;;;1.27;;
54705;SDS011;40603;48.774;8.916;2023-12-20T13:17:15;3.80;;;0.95;;
54705;SDS011;40603;48.774;8.916;2023-12-20T13:19:41;4.22;;;1.20;;
54705;SDS011;40603;48.774;8.916;2023-12-20T13:22:06;1.50;;;0.80;;
54705;SDS011;40603;48.774;8.916;2023-12-20T13:24:32;7.20;;;1.38;;
54705;SDS011;40603;48.774;8.916;2023-12-20T13:26:57;4.40;;;1.10;;
54705;SDS011;40603;48.774;8.916;2023-12-20T13:29:23;7.18;;;1.10;;
54705;SDS011;40603;48.774;8.916;2023-12-20T13:31:49;2.15;;;1.13;;
54705;SDS011;40603;48.774;8.916;2023-12-20T13:34:14;2.00;;;1.02;;
54705;SDS011;40603;48.774;8.916;2023-12-20T13:36:42;2.30;;;0.80;;
54705;SDS011;40603;48.774;8.916;2023-12-20T13:39:10;4.32;;;1.05;;
54705;SDS011;40603;48.774;8.916;2023-12-20T13:41:35;4.30;;;1.30;;
54705;SDS011;40603;48.774;8.916;2023-12-20T13:44:01;4.70;;;1.38;;
54705;SDS011;40603;48.774;8.916;2023-12-20T13:46:28;9.75;;;1.40;;
54705;SDS011;40603;48.774;8.916;2023-12-20T13:48:53;2.22;;;1.10;;
54705;SDS011;40603;48.774;8.916;2023-12-20T13:51:19;10.40;;;1.20;;
54705;SDS011;40603;48.774;8.916;2023-12-20T13:53:45;6.45;;;1.00;;
54705;SDS011;40603;48.774;8.916;2023-12-20T13:56:11;5.43;;;1.35;;
54705;SDS011;40603;48.774;8.916;2023-12-20T13:58:36;6.53;;;1.15;;
54705;SDS011;40603;48.774;8.916;2023-12-20T14:01:01;5.78;;;1.50;;
54705;SDS011;40603;48.774;8.916;2023-12-20T14:03:27;4.93;;;1.05;;
54705;SDS011;40603;48.774;8.916;2023-12-20T14:05:52;4.78;;;1.33;;
54705;SDS011;40603;48.774;8.916;2023-12-20T14:08:17;5.90;;;1.23;;
54705;SDS011;40603;48.774;8.916;2023-12-20T14:10:42;6.70;;;1.38;;
54705;SDS011;40603;48.774;8.916;2023-12-20T14:13:08;7.03;;;2.13;;
54705;SDS011;40603;48.774;8.916;2023-12-20T14:15:33;5.53;;;1.63;;
54705;SDS011;40603;48.774;8.916;2023-12-20T14:18:02;8.38;;;1.50;;
54705;SDS011;40603;48.774;8.916;2023-12-20T14:20:32;5.47;;;1.10;;
54705;SDS011;40603;48.774;8.916;2023-12-20T14:22:59;9.55;;;1.40;;
54705;SDS011;40603;48.774;8.916;2023-12-20T14:25:25;9.70;;;1.65;;
54705;SDS011;40603;48.774;8.916;2023-12-20T14:27:50;6.63;;;1.25;;
54705;SDS011;40603;48.774;8.916;2023-12-20T14:30:16;7.78;;;1.33;;
54705;SDS011;40603;48.774;8.916;2023-12-20T14:32:42;2.67;;;0.85;;
54705;SDS011;40603;48.774;8.916;2023-12-20T14:35:07;3.40;;;1.02;;
54705;SDS011;40603;48.774;8.916;2023-12-20T14:37:33;8.77;;;1.33;;
54705;SDS011;40603;48.774;8.916;2023-12-20T14:39:59;6.05;;;1.30;;
54705;SDS011;40603;48.774;8.916;2023-12-20T14:42:25;2.92;;;1.20;;
54705;SDS011;40603;48.774;8.916;2023-12-20T14:44:50;2.40;;;1.10;;